Ship Status Report: callsign V2CV5

sailwx.info

Track history (hours):
 
Tides and Currents Weather Stations Pressure Air Temp Water Temp Dewpoint Dewpoint Depression Visibility Wind Speed Wind Dir Waves Ship Positions

Callsign V2CV5 (name unknown)

Last reported at 2014-Oct-31 22:31 UTC. Time now 2014-Oct-31 23:35 UTC.
Position N 39°59' E 000°29'.

Length 134 m; draft 8.3 m.

Type: Ship (hazmat cat A). MMSI: 304678000.

Date/timePositionNaut miles runAvg speedWind from/ knotsBaromVisibWave heightAir tempDewpointWater temp
2014-Oct-31 22:31N 39°59' E 000°29'1313.8
2014-Oct-31 21:33N 40°08' E 000°41'11714.4
2014-Oct-31 13:25N 41°25' E 002°38'1313.7
2014-Oct-31 12:27N 41°34' E 002°51'1414.0
2014-Oct-31 11:29N 41°43' E 003°05'1414.3
2014-Oct-31 10:32N 41°51' E 003°19'2014.6
2014-Oct-31 09:12N 42°05' E 003°38'1314.5
2014-Oct-31 08:17N 42°15' E 003°50'1314.9
2014-Oct-31 07:23N 42°24' E 004°03'6015.6
2014-Oct-31 03:33N 43°06' E 005°01'1515.0
2014-Oct-31 02:33N 43°18' E 005°13'6 5.6
2014-Oct-31 01:32N 43°21' E 005°20'0 0.0
2014-Oct-31 00:33N 43°21' E 005°20'0 0.0
2014-Oct-30 22:32N 43°21' E 005°20'0 0.0
2014-Oct-30 20:07N 43°21' E 005°20'0 0.0
2014-Oct-30 17:30N 43°21' E 005°20'0 0.0
2014-Oct-30 14:10N 43°21' E 005°20'0 0.0
2014-Oct-30 11:08N 43°21' E 005°20'3 5.2
2014-Oct-30 10:33N 43°20' E 005°16'1514.9
2014-Oct-30 09:31N 43°07' E 005°04'1614.7
2014-Oct-30 08:25N 42°56' E 004°48'150 7.1
2014-Oct-29 11:17N 41°21' E 002°10'2 0.8
2014-Oct-29 08:25N 41°19' E 002°12'0 0.0
2014-Oct-29 03:17N 41°19' E 002°12'0 0.0
2014-Oct-28 23:27N 41°19' E 002°12'0 0.0
2014-Oct-28 22:09N 41°19' E 002°12'0 0.0
2014-Oct-28 06:20N 41°19' E 002°12'0 0.0
2014-Oct-27 04:20N 41°19' E 002°12'0 0.0
2014-Oct-27 03:20N 41°19' E 002°12'0 0.0
2014-Oct-27 02:32N 41°19' E 002°12'0 0.0
2014-Oct-26 21:17N 41°19' E 002°12'22 5.8
2014-Oct-26 17:34N 40°59' E 002°02'1917.7
2014-Oct-26 16:28N 40°41' E 001°53'1617.1
2014-Oct-26 15:33N 40°26' E 001°45'1717.5
2014-Oct-26 14:33N 40°10' E 001°37'1717.6
2014-Oct-26 13:33N 39°54' E 001°29'1817.6
2014-Oct-26 12:33N 39°37' E 001°21'1817.9
2014-Oct-26 11:33N 39°21' E 001°12'2718.3
2014-Oct-26 10:06N 38°56' E 000°59'8017.5
2014-Oct-26 05:33N 37°48' E 000°06'  
2014-Oct-22 22:20N 35°55' W 005°02'1417.9
2014-Oct-22 21:34N 35°58' W 005°19'  
Track history (hours):
 
Tides and Currents Weather Stations Pressure Air Temp Water Temp Dewpoint Dewpoint Depression Visibility Wind Speed Wind Dir Waves Ship Positions

Callsign V2CV5 (name unknown)

Last reported at 2014-Oct-31 22:31 UTC. Time now 2014-Oct-31 23:35 UTC.
Position N 39°59' E 000°29'.

Length 134 m; draft 8.3 m.

Type: Ship (hazmat cat A). MMSI: 304678000.

Date/timePositionNaut miles runAvg speedWind from/ knotsBaromVisibWave heightAir tempDewpointWater temp
2014-Oct-31 22:31N 39°59' E 000°29'1313.8
2014-Oct-31 21:33N 40°08' E 000°41'11714.4
2014-Oct-31 13:25N 41°25' E 002°38'1313.7
2014-Oct-31 12:27N 41°34' E 002°51'1414.0
2014-Oct-31 11:29N 41°43' E 003°05'1414.3
2014-Oct-31 10:32N 41°51' E 003°19'2014.6
2014-Oct-31 09:12N 42°05' E 003°38'1314.5
2014-Oct-31 08:17N 42°15' E 003°50'1314.9
2014-Oct-31 07:23N 42°24' E 004°03'6015.6
2014-Oct-31 03:33N 43°06' E 005°01'1515.0
2014-Oct-31 02:33N 43°18' E 005°13'6 5.6
2014-Oct-31 01:32N 43°21' E 005°20'0 0.0
2014-Oct-31 00:33N 43°21' E 005°20'0 0.0
2014-Oct-30 22:32N 43°21' E 005°20'0 0.0
2014-Oct-30 20:07N 43°21' E 005°20'0 0.0
2014-Oct-30 17:30N 43°21' E 005°20'0 0.0
2014-Oct-30 14:10N 43°21' E 005°20'0 0.0
2014-Oct-30 11:08N 43°21' E 005°20'3 5.2
2014-Oct-30 10:33N 43°20' E 005°16'1514.9
2014-Oct-30 09:31N 43°07' E 005°04'1614.7
2014-Oct-30 08:25N 42°56' E 004°48'150 7.1
2014-Oct-29 11:17N 41°21' E 002°10'2 0.8
2014-Oct-29 08:25N 41°19' E 002°12'0 0.0
2014-Oct-29 03:17N 41°19' E 002°12'0 0.0
2014-Oct-28 23:27N 41°19' E 002°12'0 0.0
2014-Oct-28 22:09N 41°19' E 002°12'0 0.0
2014-Oct-28 06:20N 41°19' E 002°12'0 0.0
2014-Oct-27 04:20N 41°19' E 002°12'0 0.0
2014-Oct-27 03:20N 41°19' E 002°12'0 0.0
2014-Oct-27 02:32N 41°19' E 002°12'0 0.0
2014-Oct-26 21:17N 41°19' E 002°12'22 5.8
2014-Oct-26 17:34N 40°59' E 002°02'1917.7
2014-Oct-26 16:28N 40°41' E 001°53'1617.1
2014-Oct-26 15:33N 40°26' E 001°45'1717.5
2014-Oct-26 14:33N 40°10' E 001°37'1717.6
2014-Oct-26 13:33N 39°54' E 001°29'1817.6
2014-Oct-26 12:33N 39°37' E 001°21'1817.9
2014-Oct-26 11:33N 39°21' E 001°12'2718.3
2014-Oct-26 10:06N 38°56' E 000°59'8017.5
2014-Oct-26 05:33N 37°48' E 000°06'  
2014-Oct-22 22:20N 35°55' W 005°02'1417.9
2014-Oct-22 21:34N 35°58' W 005°19'  

Dump ship's entire track history